North Thompsonville, Connecticut
Current Conditions -  °F | °C
As of 2:51 PM on Thursday 18 Dec 2014 (Local Time) from KBDL Reporting Station
Overcast Overcast  
Wind Chill: 33°   Ceiling: 3200
Heat Index: 40°   Visibility: 10mi
Dew Point: 26°   Wind: 12mph
Humidity: 58%   Direction: 320°NW
Pressure: 29.86"   Gusts: NA
Location:  41.9843°N, 72.5534°W
Report Text: KBDL 181951Z 32010KT 10SM OVC032 04/M03 A2986 RMK AO2 SLP113 BINOVC T00441033
Loading
Personal Weather Stations






























Interactive Weather Map New forecast layout! Learn more

10-Day Weather Forecast

Advertisements
Track Severe Weather on mobile